sensor_id;sensor_type;location;lat;lon;timestamp;pressure;altitude;pressure_sealevel;temperature;humidity
54453;BME280;40363;52.270;10.546;2022-10-16T00:01:46;75854.22;;;-147.06;89.66
54453;BME280;40363;52.270;10.546;2022-10-16T00:04:13;75848.06;;;-147.06;89.94
54453;BME280;40363;52.270;10.546;2022-10-16T00:06:40;75848.06;;;-147.06;89.79
54453;BME280;40363;52.270;10.546;2022-10-16T00:09:08;75848.06;;;-147.06;90.48
54453;BME280;40363;52.270;10.546;2022-10-16T00:11:37;75868.63;;;-147.06;91.47
54453;BME280;40363;52.270;10.546;2022-10-16T00:14:06;75874.78;;;-147.06;91.88
54453;BME280;40363;52.270;10.546;2022-10-16T00:16:36;75885.06;;;-147.06;92.05
54453;BME280;40363;52.270;10.546;2022-10-16T00:19:03;75893.28;;;-147.06;91.98
54453;BME280;40363;52.270;10.546;2022-10-16T00:21:30;75897.38;;;-147.06;92.33
54453;BME280;40363;52.270;10.546;2022-10-16T00:23:59;75909.72;;;-147.06;92.65
54453;BME280;40363;52.270;10.546;2022-10-16T00:26:29;75924.09;;;-147.06;93.44
54453;BME280;40363;52.270;10.546;2022-10-16T00:28:56;75928.22;;;-147.06;93.11
54453;BME280;40363;52.270;10.546;2022-10-16T00:31:23;75917.94;;;-147.06;92.43
54453;BME280;40363;52.270;10.546;2022-10-16T00:33:50;75936.44;;;-147.06;93.27
54453;BME280;40363;52.270;10.546;2022-10-16T00:36:19;75936.44;;;-147.06;93.08
54453;BME280;40363;52.270;10.546;2022-10-16T00:38:46;75922.06;;;-147.06;92.89
54453;BME280;40363;52.270;10.546;2022-10-16T00:41:15;75940.53;;;-147.06;93.30
54453;BME280;40363;52.270;10.546;2022-10-16T00:43:45;75942.59;;;-147.06;93.06
54453;BME280;40363;52.270;10.546;2022-10-16T00:46:17;75940.53;;;-147.06;93.41
54453;BME280;40363;52.270;10.546;2022-10-16T00:48:48;75946.72;;;-147.06;93.36
54453;BME280;40363;52.270;10.546;2022-10-16T00:51:17;75948.75;;;-147.06;93.43
54453;BME280;40363;52.270;10.546;2022-10-16T00:53:46;75959.03;;;-147.06;93.28
54453;BME280;40363;52.270;10.546;2022-10-16T00:56:12;75938.50;;;-147.06;92.81
54453;BME280;40363;52.270;10.546;2022-10-16T00:58:39;75934.38;;;-147.06;92.56
54453;BME280;40363;52.270;10.546;2022-10-16T01:01:07;75940.53;;;-147.06;93.01
54453;BME280;40363;52.270;10.546;2022-10-16T01:03:36;75948.75;;;-147.06;93.42
54453;BME280;40363;52.270;10.546;2022-10-16T01:06:10;75952.88;;;-147.06;93.27
54453;BME280;40363;52.270;10.546;2022-10-16T01:08:45;75954.94;;;-147.06;93.54
54453;BME280;40363;52.270;10.546;2022-10-16T01:11:21;75950.81;;;-147.06;93.33
54453;BME280;40363;52.270;10.546;2022-10-16T01:13:53;75950.81;;;-147.06;93.10
54453;BME280;40363;52.270;10.546;2022-10-16T01:16:29;75954.94;;;-147.06;93.34
54453;BME280;40363;52.270;10.546;2022-10-16T01:19:04;75975.47;;;-147.06;94.04
54453;BME280;40363;52.270;10.546;2022-10-16T01:21:36;75987.81;;;-147.06;94.62
54453;BME280;40363;52.270;10.546;2022-10-16T01:24:09;75971.38;;;-147.06;94.39
54453;BME280;40363;52.270;10.546;2022-10-16T01:29:26;75965.22;;;-147.06;93.90
54453;BME280;40363;52.270;10.546;2022-10-16T01:31:58;75961.09;;;-147.06;93.28
54453;BME280;40363;52.270;10.546;2022-10-16T01:34:31;75946.72;;;-147.06;91.91
54453;BME280;40363;52.270;10.546;2022-10-16T01:37:04;75926.16;;;-147.06;91.32
54453;BME280;40363;52.270;10.546;2022-10-16T01:39:33;75926.16;;;-147.06;91.79
54453;BME280;40363;52.270;10.546;2022-10-16T01:42:07;75926.16;;;-147.06;90.89
54453;BME280;40363;52.270;10.546;2022-10-16T01:44:37;75932.31;;;-147.06;90.91
54453;BME280;40363;52.270;10.546;2022-10-16T01:47:05;75926.16;;;-147.06;90.62
54453;BME280;40363;52.270;10.546;2022-10-16T01:49:36;75936.44;;;-147.06;91.48
54453;BME280;40363;52.270;10.546;2022-10-16T01:52:07;75944.66;;;-147.06;91.72
54453;BME280;40363;52.270;10.546;2022-10-16T01:54:37;75942.59;;;-147.06;90.33
54453;BME280;40363;52.270;10.546;2022-10-16T01:57:07;75940.53;;;-147.06;89.73
54453;BME280;40363;52.270;10.546;2022-10-16T01:59:40;75938.50;;;-147.06;89.46
54453;BME280;40363;52.270;10.546;2022-10-16T02:02:09;75934.38;;;-147.06;89.85
54453;BME280;40363;52.270;10.546;2022-10-16T02:04:39;75950.81;;;-147.06;90.41
54453;BME280;40363;52.270;10.546;2022-10-16T02:07:08;75959.03;;;-147.06;89.93
54453;BME280;40363;52.270;10.546;2022-10-16T02:09:36;75952.88;;;-147.06;89.39
54453;BME280;40363;52.270;10.546;2022-10-16T02:12:06;75946.72;;;-147.06;89.20
54453;BME280;40363;52.270;10.546;2022-10-16T02:14:39;75942.59;;;-147.06;89.34
54453;BME280;40363;52.270;10.546;2022-10-16T02:17:11;75944.66;;;-147.06;89.18
54453;BME280;40363;52.270;10.546;2022-10-16T02:19:38;75946.72;;;-147.06;89.81
54453;BME280;40363;52.270;10.546;2022-10-16T02:22:07;75950.81;;;-147.06;89.65
54453;BME280;40363;52.270;10.546;2022-10-16T02:24:39;75957.00;;;-147.06;89.16
54453;BME280;40363;52.270;10.546;2022-10-16T02:27:10;75959.03;;;-147.06;88.75
54453;BME280;40363;52.270;10.546;2022-10-16T02:29:41;75959.03;;;-147.06;88.36
54453;BME280;40363;52.270;10.546;2022-10-16T02:32:12;75954.94;;;-147.06;88.09
54453;BME280;40363;52.270;10.546;2022-10-16T02:34:41;75946.72;;;-147.06;87.37
54453;BME280;40363;52.270;10.546;2022-10-16T02:37:09;75942.59;;;-147.06;86.96
54453;BME280;40363;52.270;10.546;2022-10-16T02:39:36;75934.38;;;-147.06;86.84
54453;BME280;40363;52.270;10.546;2022-10-16T02:42:03;75938.50;;;-147.06;86.78
54453;BME280;40363;52.270;10.546;2022-10-16T02:44:29;75946.72;;;-147.06;86.69
54453;BME280;40363;52.270;10.546;2022-10-16T02:46:57;75936.44;;;-147.06;86.46
54453;BME280;40363;52.270;10.546;2022-10-16T02:49:24;75934.38;;;-147.06;86.28
54453;BME280;40363;52.270;10.546;2022-10-16T02:51:51;75932.31;;;-147.06;86.22
54453;BME280;40363;52.270;10.546;2022-10-16T02:54:17;75938.50;;;-147.06;86.17
54453;BME280;40363;52.270;10.546;2022-10-16T02:56:44;75944.66;;;-147.06;86.39
54453;BME280;40363;52.270;10.546;2022-10-16T02:59:11;75944.66;;;-147.06;86.18
54453;BME280;40363;52.270;10.546;2022-10-16T03:01:37;75942.59;;;-147.06;86.02
54453;BME280;40363;52.270;10.546;2022-10-16T03:04:05;75942.59;;;-147.06;86.04
54453;BME280;40363;52.270;10.546;2022-10-16T03:06:32;75946.72;;;-147.06;85.87
54453;BME280;40363;52.270;10.546;2022-10-16T03:08:58;75950.81;;;-147.06;85.94
54453;BME280;40363;52.270;10.546;2022-10-16T03:11:25;75946.72;;;-147.06;85.70
54453;BME280;40363;52.270;10.546;2022-10-16T03:13:53;75948.75;;;-147.06;85.67
54453;BME280;40363;52.270;10.546;2022-10-16T03:16:20;75946.72;;;-147.06;85.99
54453;BME280;40363;52.270;10.546;2022-10-16T03:18:48;75932.31;;;-147.06;85.43
54453;BME280;40363;52.270;10.546;2022-10-16T03:21:17;75942.59;;;-147.06;85.84
54453;BME280;40363;52.270;10.546;2022-10-16T03:23:43;75946.72;;;-147.06;86.96
54453;BME280;40363;52.270;10.546;2022-10-16T03:26:10;75967.25;;;-147.06;88.43
54453;BME280;40363;52.270;10.546;2022-10-16T03:28:36;75975.47;;;-147.06;88.78
54453;BME280;40363;52.270;10.546;2022-10-16T03:31:03;75983.69;;;-147.06;89.91
54453;BME280;40363;52.270;10.546;2022-10-16T03:33:30;75989.88;;;-147.06;89.91
54453;BME280;40363;52.270;10.546;2022-10-16T03:35:57;75993.97;;;-147.06;90.33
54453;BME280;40363;52.270;10.546;2022-10-16T03:38:25;76010.41;;;-147.06;90.56
54453;BME280;40363;52.270;10.546;2022-10-16T03:40:51;76018.63;;;-147.06;90.62
54453;BME280;40363;52.270;10.546;2022-10-16T03:43:18;76041.25;;;-147.06;91.53
54453;BME280;40363;52.270;10.546;2022-10-16T03:45:45;76049.47;;;-147.06;91.57
54453;BME280;40363;52.270;10.546;2022-10-16T03:48:12;76047.41;;;-147.06;91.66
54453;BME280;40363;52.270;10.546;2022-10-16T03:50:38;76043.31;;;-147.06;91.88
54453;BME280;40363;52.270;10.546;2022-10-16T03:53:05;76033.03;;;-147.06;91.49
54453;BME280;40363;52.270;10.546;2022-10-16T03:55:33;76041.25;;;-147.06;91.58
54453;BME280;40363;52.270;10.546;2022-10-16T03:58:00;76039.19;;;-147.06;91.52
54453;BME280;40363;52.270;10.546;2022-10-16T04:00:27;76047.41;;;-147.06;91.22
54453;BME280;40363;52.270;10.546;2022-10-16T04:02:54;76049.47;;;-147.06;91.43
54453;BME280;40363;52.270;10.546;2022-10-16T04:05:20;76043.31;;;-147.06;91.40
54453;BME280;40363;52.270;10.546;2022-10-16T04:07:47;76053.56;;;-147.06;91.40
54453;BME280;40363;52.270;10.546;2022-10-16T04:10:14;76070.00;;;-147.06;91.75
54453;BME280;40363;52.270;10.546;2022-10-16T04:12:42;76076.19;;;-147.06;92.42
54453;BME280;40363;52.270;10.546;2022-10-16T04:15:09;76080.28;;;-147.06;92.20
54453;BME280;40363;52.270;10.546;2022-10-16T04:17:35;76082.34;;;-147.06;92.49
54453;BME280;40363;52.270;10.546;2022-10-16T04:20:03;76090.56;;;-147.06;92.57
54453;BME280;40363;52.270;10.546;2022-10-16T04:22:29;76086.47;;;-147.06;92.37
54453;BME280;40363;52.270;10.546;2022-10-16T04:24:56;76094.69;;;-147.06;92.22
54453;BME280;40363;52.270;10.546;2022-10-16T04:27:23;76092.63;;;-147.06;92.48
54453;BME280;40363;52.270;10.546;2022-10-16T04:29:51;76100.84;;;-147.06;92.75
54453;BME280;40363;52.270;10.546;2022-10-16T04:32:17;76102.91;;;-147.06;92.91
54453;BME280;40363;52.270;10.546;2022-10-16T04:34:44;76109.06;;;-147.06;92.66
54453;BME280;40363;52.270;10.546;2022-10-16T04:37:11;76115.22;;;-147.06;92.75
54453;BME280;40363;52.270;10.546;2022-10-16T04:39:37;76117.28;;;-147.06;92.86
54453;BME280;40363;52.270;10.546;2022-10-16T04:42:04;76111.13;;;-147.06;92.68
54453;BME280;40363;52.270;10.546;2022-10-16T04:44:30;76111.13;;;-147.06;92.52
54453;BME280;40363;52.270;10.546;2022-10-16T04:46:58;76104.97;;;-147.06;92.21
54453;BME280;40363;52.270;10.546;2022-10-16T04:49:25;76098.78;;;-147.06;92.20
54453;BME280;40363;52.270;10.546;2022-10-16T04:51:52;76084.41;;;-147.06;91.87
54453;BME280;40363;52.270;10.546;2022-10-16T04:54:18;76094.69;;;-147.06;92.20
54453;BME280;40363;52.270;10.546;2022-10-16T04:56:45;76100.84;;;-147.06;92.28
54453;BME280;40363;52.270;10.546;2022-10-16T04:59:13;76098.78;;;-147.06;92.18
54453;BME280;40363;52.270;10.546;2022-10-16T05:01:40;76086.47;;;-147.06;91.99
54453;BME280;40363;52.270;10.546;2022-10-16T05:04:08;76055.63;;;-147.06;91.58
54453;BME280;40363;52.270;10.546;2022-10-16T05:06:35;76065.91;;;-147.06;92.06
54453;BME280;40363;52.270;10.546;2022-10-16T05:09:02;76086.47;;;-147.06;92.22
54453;BME280;40363;52.270;10.546;2022-10-16T05:11:29;76096.72;;;-147.06;92.31
54453;BME280;40363;52.270;10.546;2022-10-16T05:13:55;76102.91;;;-147.06;92.55
54453;BME280;40363;52.270;10.546;2022-10-16T05:16:22;76100.84;;;-147.06;92.83
54453;BME280;40363;52.270;10.546;2022-10-16T05:18:49;76094.69;;;-147.06;92.90
54453;BME280;40363;52.270;10.546;2022-10-16T05:21:19;76090.56;;;-147.06;92.99
54453;BME280;40363;52.270;10.546;2022-10-16T05:23:46;76115.22;;;-147.06;93.22
54453;BME280;40363;52.270;10.546;2022-10-16T05:26:12;76109.06;;;-147.06;93.31
54453;BME280;40363;52.270;10.546;2022-10-16T05:28:39;76113.19;;;-147.06;93.14
54453;BME280;40363;52.270;10.546;2022-10-16T05:31:06;76119.34;;;-147.06;93.27
54453;BME280;40363;52.270;10.546;2022-10-16T05:33:34;76115.22;;;-147.06;93.18
54453;BME280;40363;52.270;10.546;2022-10-16T05:36:01;76119.34;;;-147.06;93.54
54453;BME280;40363;52.270;10.546;2022-10-16T05:38:29;76115.22;;;-147.06;94.08
54453;BME280;40363;52.270;10.546;2022-10-16T05:40:56;76125.50;;;-147.06;94.32
54453;BME280;40363;52.270;10.546;2022-10-16T05:43:23;76127.56;;;-147.06;93.71
54453;BME280;40363;52.270;10.546;2022-10-16T05:45:54;76123.44;;;-147.06;93.79
54453;BME280;40363;52.270;10.546;2022-10-16T05:48:21;76129.63;;;-147.06;94.19
54453;BME280;40363;52.270;10.546;2022-10-16T05:50:47;76135.78;;;-147.06;94.17
54453;BME280;40363;52.270;10.546;2022-10-16T05:53:14;76141.94;;;-147.06;93.98
54453;BME280;40363;52.270;10.546;2022-10-16T05:55:42;76148.13;;;-147.06;94.01
54453;BME280;40363;52.270;10.546;2022-10-16T05:58:08;76146.06;;;-147.06;94.12
54453;BME280;40363;52.270;10.546;2022-10-16T06:00:35;76146.06;;;-147.06;94.35
54453;BME280;40363;52.270;10.546;2022-10-16T06:03:02;76166.63;;;-147.06;94.19
54453;BME280;40363;52.270;10.546;2022-10-16T06:05:30;76164.56;;;-147.06;94.50
54453;BME280;40363;52.270;10.546;2022-10-16T06:07:56;76154.28;;;-147.06;94.26
54453;BME280;40363;52.270;10.546;2022-10-16T06:10:23;76152.22;;;-147.06;93.84
54453;BME280;40363;52.270;10.546;2022-10-16T06:12:51;76152.22;;;-147.06;93.69
54453;BME280;40363;52.270;10.546;2022-10-16T06:15:18;76170.72;;;-147.06;94.06
54453;BME280;40363;52.270;10.546;2022-10-16T06:17:44;76178.94;;;-147.06;94.03
54453;BME280;40363;52.270;10.546;2022-10-16T06:20:11;76172.78;;;-147.06;94.27
54453;BME280;40363;52.270;10.546;2022-10-16T06:22:38;76195.38;;;-147.06;94.77
54453;BME280;40363;52.270;10.546;2022-10-16T06:25:05;76201.56;;;-147.06;94.71
54453;BME280;40363;52.270;10.546;2022-10-16T06:27:32;76199.50;;;-147.06;95.04
54453;BME280;40363;52.270;10.546;2022-10-16T06:30:00;76191.28;;;-147.06;95.12
54453;BME280;40363;52.270;10.546;2022-10-16T06:32:27;76174.84;;;-147.06;95.05
54453;BME280;40363;52.270;10.546;2022-10-16T06:34:54;76170.72;;;-147.06;94.44
54453;BME280;40363;52.270;10.546;2022-10-16T06:37:20;76166.63;;;-147.06;94.08
54453;BME280;40363;52.270;10.546;2022-10-16T06:39:47;76160.44;;;-147.06;93.39
54453;BME280;40363;52.270;10.546;2022-10-16T06:42:13;76152.22;;;-147.06;92.96
54453;BME280;40363;52.270;10.546;2022-10-16T06:44:40;76152.22;;;-147.06;92.57
54453;BME280;40363;52.270;10.546;2022-10-16T06:47:08;76119.34;;;-147.06;91.49
54453;BME280;40363;52.270;10.546;2022-10-16T06:49:35;76102.91;;;-147.06;90.95
54453;BME280;40363;52.270;10.546;2022-10-16T06:52:02;76090.56;;;-147.06;90.48
54453;BME280;40363;52.270;10.546;2022-10-16T06:54:29;76080.28;;;-147.06;90.01
54453;BME280;40363;52.270;10.546;2022-10-16T06:56:56;76072.06;;;-147.06;89.26
54453;BME280;40363;52.270;10.546;2022-10-16T06:59:25;76070.00;;;-147.06;89.37
54453;BME280;40363;52.270;10.546;2022-10-16T07:01:51;76076.19;;;-147.06;89.25
54453;BME280;40363;52.270;10.546;2022-10-16T07:04:20;76082.34;;;-147.06;89.38
54453;BME280;40363;52.270;10.546;2022-10-16T07:06:46;76082.34;;;-147.06;89.34
54453;BME280;40363;52.270;10.546;2022-10-16T07:09:13;76061.78;;;-147.06;88.83
54453;BME280;40363;52.270;10.546;2022-10-16T07:11:40;76045.34;;;-147.06;88.91
54453;BME280;40363;52.270;10.546;2022-10-16T07:14:13;76039.19;;;-147.06;88.05
54453;BME280;40363;52.270;10.546;2022-10-16T07:16:41;76033.03;;;-147.06;87.54
54453;BME280;40363;52.270;10.546;2022-10-16T07:19:08;76012.47;;;-147.06;86.53
54453;BME280;40363;52.270;10.546;2022-10-16T07:21:38;75993.97;;;-147.06;86.21
54453;BME280;40363;52.270;10.546;2022-10-16T07:24:07;75967.25;;;-147.06;85.28
54453;BME280;40363;52.270;10.546;2022-10-16T07:26:35;75938.50;;;-147.06;84.37
54453;BME280;40363;52.270;10.546;2022-10-16T07:29:04;75917.94;;;-147.06;83.52
54453;BME280;40363;52.270;10.546;2022-10-16T07:31:31;75905.59;;;-147.06;83.00
54453;BME280;40363;52.270;10.546;2022-10-16T07:33:58;75889.16;;;-147.06;81.77
54453;BME280;40363;52.270;10.546;2022-10-16T07:36:26;75885.06;;;-147.06;81.25
54453;BME280;40363;52.270;10.546;2022-10-16T07:38:54;75887.13;;;-147.06;81.45
54453;BME280;40363;52.270;10.546;2022-10-16T07:41:20;75858.34;;;-147.06;80.15
54453;BME280;40363;52.270;10.546;2022-10-16T07:43:48;75823.41;;;-147.06;78.96
54453;BME280;40363;52.270;10.546;2022-10-16T07:46:16;75813.13;;;-147.06;78.17
54453;BME280;40363;52.270;10.546;2022-10-16T07:48:43;75804.91;;;-147.06;77.57
54453;BME280;40363;52.270;10.546;2022-10-16T07:51:13;75753.53;;;-147.06;75.79
54453;BME280;40363;52.270;10.546;2022-10-16T07:53:40;75714.50;;;-147.06;74.17
54453;BME280;40363;52.270;10.546;2022-10-16T07:56:08;75654.91;;;-147.06;72.16
54453;BME280;40363;52.270;10.546;2022-10-16T07:58:35;75622.03;;;-147.06;70.23
54453;BME280;40363;52.270;10.546;2022-10-16T08:01:03;75560.38;;;-147.06;67.81
54453;BME280;40363;52.270;10.546;2022-10-16T08:03:30;75619.97;;;-147.06;69.22
54453;BME280;40363;52.270;10.546;2022-10-16T08:05:57;75564.47;;;-147.06;67.55
54453;BME280;40363;52.270;10.546;2022-10-16T08:08:24;75548.03;;;-147.06;67.03
54453;BME280;40363;52.270;10.546;2022-10-16T08:10:50;75498.72;;;-147.06;65.75
54453;BME280;40363;52.270;10.546;2022-10-16T08:13:18;75527.50;;;-147.06;65.29
54453;BME280;40363;52.270;10.546;2022-10-16T08:15:46;75511.06;;;-147.06;65.06
54453;BME280;40363;52.270;10.546;2022-10-16T08:18:13;75459.69;;;-147.06;62.86
54453;BME280;40363;52.270;10.546;2022-10-16T08:20:42;75400.09;;;-147.06;61.36
54453;BME280;40363;52.270;10.546;2022-10-16T08:23:09;75391.88;;;-147.06;60.95
54453;BME280;40363;52.270;10.546;2022-10-16T08:25:37;75416.53;;;-147.06;61.44
54453;BME280;40363;52.270;10.546;2022-10-16T08:28:04;75356.94;;;-147.06;59.81
54453;BME280;40363;52.270;10.546;2022-10-16T08:30:32;75367.22;;;-147.06;58.81
54453;BME280;40363;52.270;10.546;2022-10-16T08:32:59;75352.84;;;-147.06;57.79
54453;BME280;40363;52.270;10.546;2022-10-16T08:35:26;75336.41;;;-147.06;57.84
54453;BME280;40363;52.270;10.546;2022-10-16T08:37:52;75326.13;;;-147.06;57.84
54453;BME280;40363;52.270;10.546;2022-10-16T08:40:22;75332.28;;;-147.06;57.65
54453;BME280;40363;52.270;10.546;2022-10-16T08:43:01;75363.09;;;-147.06;58.01
54453;BME280;40363;52.270;10.546;2022-10-16T08:45:40;75350.78;;;-147.06;58.18
54453;BME280;40363;52.270;10.546;2022-10-16T08:48:17;75402.16;;;-147.06;59.13
54453;BME280;40363;52.270;10.546;2022-10-16T08:50:45;75494.63;;;-147.06;61.17
54453;BME280;40363;52.270;10.546;2022-10-16T08:53:18;75568.59;;;-147.06;62.48
54453;BME280;40363;52.270;10.546;2022-10-16T08:55:50;75566.53;;;-147.06;63.37
54453;BME280;40363;52.270;10.546;2022-10-16T08:58:18;75603.53;;;-147.06;64.25
54453;BME280;40363;52.270;10.546;2022-10-16T09:00:48;75605.56;;;-147.06;63.85
54453;BME280;40363;52.270;10.546;2022-10-16T09:03:32;75648.72;;;-147.06;65.02
54453;BME280;40363;52.270;10.546;2022-10-16T09:06:13;75659.00;;;-147.06;65.14
54453;BME280;40363;52.270;10.546;2022-10-16T09:08:53;75552.16;;;-147.06;62.06
54453;BME280;40363;52.270;10.546;2022-10-16T09:11:30;75478.19;;;-147.06;60.09
54453;BME280;40363;52.270;10.546;2022-10-16T09:14:15;75447.34;;;-147.06;59.12
54453;BME280;40363;52.270;10.546;2022-10-16T09:16:51;75476.13;;;-147.06;59.24
54453;BME280;40363;52.270;10.546;2022-10-16T09:19:25;75486.41;;;-147.06;58.85
54453;BME280;40363;52.270;10.546;2022-10-16T09:21:54;75424.75;;;-147.06;58.07
54453;BME280;40363;52.270;10.546;2022-10-16T09:24:24;75437.06;;;-147.06;58.04
54453;BME280;40363;52.270;10.546;2022-10-16T09:26:52;75420.63;;;-147.06;57.86
54453;BME280;40363;52.270;10.546;2022-10-16T09:29:21;75371.31;;;-147.06;57.02
54453;BME280;40363;52.270;10.546;2022-10-16T09:31:52;75383.66;;;-147.06;56.75
54453;BME280;40363;52.270;10.546;2022-10-16T09:34:24;75463.78;;;-147.06;58.33
54453;BME280;40363;52.270;10.546;2022-10-16T09:36:57;75478.19;;;-147.06;59.46
54453;BME280;40363;52.270;10.546;2022-10-16T09:39:25;75498.72;;;-147.06;59.92
54453;BME280;40363;52.270;10.546;2022-10-16T09:41:52;75525.44;;;-147.06;60.16
54453;BME280;40363;52.270;10.546;2022-10-16T09:44:22;75562.44;;;-147.06;60.96
54453;BME280;40363;52.270;10.546;2022-10-16T09:47:02;75504.88;;;-147.06;59.22
54453;BME280;40363;52.270;10.546;2022-10-16T09:49:29;75449.41;;;-147.06;57.71
54453;BME280;40363;52.270;10.546;2022-10-16T09:52:03;75391.88;;;-147.06;56.33
54453;BME280;40363;52.270;10.546;2022-10-16T09:54:30;75432.97;;;-147.06;56.99
54453;BME280;40363;52.270;10.546;2022-10-16T09:57:05;75465.84;;;-147.06;57.76
54453;BME280;40363;52.270;10.546;2022-10-16T09:59:32;75461.75;;;-147.06;57.10
54453;BME280;40363;52.270;10.546;2022-10-16T10:02:04;75437.06;;;-147.06;56.27
54453;BME280;40363;52.270;10.546;2022-10-16T10:04:39;75412.41;;;-147.06;55.35
54453;BME280;40363;52.270;10.546;2022-10-16T10:07:17;75391.88;;;-147.06;54.94
54453;BME280;40363;52.270;10.546;2022-10-16T10:09:45;75463.78;;;-147.06;55.79
54453;BME280;40363;52.270;10.546;2022-10-16T10:12:20;75535.72;;;-147.06;57.59
54453;BME280;40363;52.270;10.546;2022-10-16T10:14:47;75494.63;;;-147.06;57.00
54453;BME280;40363;52.270;10.546;2022-10-16T10:17:18;75537.78;;;-147.06;57.00
54453;BME280;40363;52.270;10.546;2022-10-16T10:19:51;75482.28;;;-147.06;55.62
54453;BME280;40363;52.270;10.546;2022-10-16T10:22:23;75472.00;;;-147.06;55.85
54453;BME280;40363;52.270;10.546;2022-10-16T10:24:57;75531.59;;;-147.06;57.17
54453;BME280;40363;52.270;10.546;2022-10-16T10:27:32;75451.47;;;-147.06;55.72
54453;BME280;40363;52.270;10.546;2022-10-16T10:30:09;75385.72;;;-147.06;53.98
54453;BME280;40363;52.270;10.546;2022-10-16T10:32:47;75369.28;;;-147.06;52.99
54453;BME280;40363;52.270;10.546;2022-10-16T10:35:22;75346.66;;;-147.06;52.18
54453;BME280;40363;52.270;10.546;2022-10-16T10:38:02;75385.72;;;-147.06;53.11
54453;BME280;40363;52.270;10.546;2022-10-16T10:40:40;75350.78;;;-147.06;52.13
54453;BME280;40363;52.270;10.546;2022-10-16T10:43:20;75299.41;;;-147.06;51.45
54453;BME280;40363;52.270;10.546;2022-10-16T10:45:54;75305.56;;;-147.06;51.17
54453;BME280;40363;52.270;10.546;2022-10-16T10:48:42;75393.94;;;-147.06;52.00
54453;BME280;40363;52.270;10.546;2022-10-16T10:51:16;75387.75;;;-147.06;51.10
54453;BME280;40363;52.270;10.546;2022-10-16T10:53:52;75500.78;;;-147.06;52.71
54453;BME280;40363;52.270;10.546;2022-10-16T10:56:40;75568.59;;;-147.06;53.49
54453;BME280;40363;52.270;10.546;2022-10-16T10:59:21;75599.41;;;-147.06;54.58
54453;BME280;40363;52.270;10.546;2022-10-16T11:01:56;75630.25;;;-147.06;55.19
54453;BME280;40363;52.270;10.546;2022-10-16T11:04:54;75644.63;;;-147.06;54.87
54453;BME280;40363;52.270;10.546;2022-10-16T11:07:28;75650.78;;;-147.06;55.75
54453;BME280;40363;52.270;10.546;2022-10-16T11:09:59;75659.00;;;-147.06;55.01
54453;BME280;40363;52.270;10.546;2022-10-16T11:12:31;75675.44;;;-147.06;53.99
54453;BME280;40363;52.270;10.546;2022-10-16T11:15:04;75691.88;;;-147.06;52.97
54453;BME280;40363;52.270;10.546;2022-10-16T11:17:38;75706.28;;;-147.06;52.68
54453;BME280;40363;52.270;10.546;2022-10-16T11:20:13;75716.53;;;-147.06;52.85
54453;BME280;40363;52.270;10.546;2022-10-16T11:22:44;75720.66;;;-147.06;52.61
54453;BME280;40363;52.270;10.546;2022-10-16T11:25:16;75708.31;;;-147.06;51.64
54453;BME280;40363;52.270;10.546;2022-10-16T11:27:47;75702.16;;;-147.06;51.30
54453;BME280;40363;52.270;10.546;2022-10-16T11:30:19;75691.88;;;-147.06;50.94
54453;BME280;40363;52.270;10.546;2022-10-16T11:32:54;75698.06;;;-147.06;50.89
54453;BME280;40363;52.270;10.546;2022-10-16T11:35:32;75693.94;;;-147.06;50.68
54453;BME280;40363;52.270;10.546;2022-10-16T11:38:09;75689.84;;;-147.06;50.97
54453;BME280;40363;52.270;10.546;2022-10-16T11:40:41;75685.72;;;-147.06;51.21
54453;BME280;40363;52.270;10.546;2022-10-16T11:43:13;75673.41;;;-147.06;51.38
54453;BME280;40363;52.270;10.546;2022-10-16T11:45:43;75689.84;;;-147.06;51.37
54453;BME280;40363;52.270;10.546;2022-10-16T11:48:20;75687.78;;;-147.06;51.13
54453;BME280;40363;52.270;10.546;2022-10-16T11:50:53;75708.31;;;-147.06;51.66
54453;BME280;40363;52.270;10.546;2022-10-16T11:53:35;75704.22;;;-147.06;51.84
54453;BME280;40363;52.270;10.546;2022-10-16T11:56:05;75704.22;;;-147.06;52.10
54453;BME280;40363;52.270;10.546;2022-10-16T11:58:37;75716.53;;;-147.06;52.42
54453;BME280;40363;52.270;10.546;2022-10-16T12:01:16;75722.72;;;-147.06;52.73
54453;BME280;40363;52.270;10.546;2022-10-16T12:03:48;75749.44;;;-147.06;53.51
54453;BME280;40363;52.270;10.546;2022-10-16T12:06:31;75774.09;;;-147.06;53.36
54453;BME280;40363;52.270;10.546;2022-10-16T12:09:01;75778.19;;;-147.06;53.57
54453;BME280;40363;52.270;10.546;2022-10-16T12:11:34;75753.53;;;-147.06;53.51
54453;BME280;40363;52.270;10.546;2022-10-16T12:14:17;75753.53;;;-147.06;53.51
54453;BME280;40363;52.270;10.546;2022-10-16T12:16:52;75763.81;;;-147.06;53.76
54453;BME280;40363;52.270;10.546;2022-10-16T12:19:20;75774.09;;;-147.06;54.27
54453;BME280;40363;52.270;10.546;2022-10-16T12:21:50;75774.09;;;-147.06;54.02
54453;BME280;40363;52.270;10.546;2022-10-16T12:24:33;75767.91;;;-147.06;54.03
54453;BME280;40363;52.270;10.546;2022-10-16T12:27:00;75761.75;;;-147.06;54.20
54453;BME280;40363;52.270;10.546;2022-10-16T12:29:34;75745.31;;;-147.06;53.65
54453;BME280;40363;52.270;10.546;2022-10-16T12:32:03;75733.00;;;-147.06;53.68
54453;BME280;40363;52.270;10.546;2022-10-16T12:34:37;75735.03;;;-147.06;53.79
54453;BME280;40363;52.270;10.546;2022-10-16T12:37:11;75720.66;;;-147.06;53.36
54453;BME280;40363;52.270;10.546;2022-10-16T12:39:38;75737.09;;;-147.06;53.61
54453;BME280;40363;52.270;10.546;2022-10-16T12:42:19;75741.22;;;-147.06;54.02
54453;BME280;40363;52.270;10.546;2022-10-16T12:44:46;75767.91;;;-147.06;53.92
54453;BME280;40363;52.270;10.546;2022-10-16T12:47:20;75753.53;;;-147.06;53.86